Miller, Missouri
Current Conditions -  °F | °C
As of 4:55 PM on Wednesday 22 Oct 2014 (Local Time) from KHFJ Reporting Station
Scattered Clouds Scattered Clouds  
Wind Chill: 70°   Ceiling: Unl
Heat Index: 70°   Visibility: 10mi
Dew Point: 54°   Wind: 7mph
Humidity: 56%   Direction: 130°SE
Pressure: 30.13"   Gusts: NA
Location:  37.21°N, 93.84°W
Report Text: KHFJ 222155Z AUTO 13006KT 10SM SCT039 21/12 A3013 RMK AO2
Loading
Personal Weather Stations






























Interactive Weather Map
Tropical Storm Tracking
New forecast layout! Learn more

10-Day Weather Forecast

Advertisements
Track Severe Weather on mobile